Time;durP1;ratioP1;P1;durP2;ratioP2;P2;SDS_P1;SDS_P2;PMS_P1;PMS_P2;Temp;Humidity;BMP_temperature;BMP_pressure;BME280_temperature;BME280_humidity;BME280_pressure;Samples;Min_cycle;Max_cycle;Signal;HPM_P1;HPM_P2
2022/04/24 00:01:16;;;;;;;;;;;;;;;14.21;54.73;99581.38;4918228;28;127371;-65
2022/04/24 00:03:42;;;;;;;;;;;;;;;14.19;54.72;99583.63;4920090;28;122408;-66
2022/04/24 00:06:08;;;;;;;;;;;;;;;14.15;54.75;99586.16;4911399;28;128309;-63
2022/04/24 00:08:34;;;;;;;;;;;;;;;14.15;54.94;99582.66;4915224;28;126110;-65
2022/04/24 00:11:00;;;;;;;;;;;;;;;14.13;54.93;99574.03;4915560;28;126851;-66
2022/04/24 00:13:26;;;;;;;;;;;;;;;14.12;55.07;99569.72;4901815;28;98111;-63
2022/04/24 00:15:52;;;;;;;;;;;;;;;14.09;55.15;99564.91;4905809;28;98352;-66
2022/04/24 00:18:18;;;;;;;;;;;;;;;14.08;55.27;99561.41;4917904;28;99882;-66
2022/04/24 00:20:43;;;;;;;;;;;;;;;14.07;55.13;99565.25;4932933;28;127601;-65
2022/04/24 00:23:09;;;;;;;;;;;;;;;14.06;55.00;99558.19;4938693;28;122939;-63
2022/04/24 00:25:35;;;;;;;;;;;;;;;14.05;55.24;99555.81;4923882;28;101784;-65
2022/04/24 00:28:02;;;;;;;;;;;;;;;14.03;55.23;99550.72;4919553;28;127444;-65
2022/04/24 00:30:28;;;;;;;;;;;;;;;14.00;55.12;99546.72;4921149;28;98594;-63
2022/04/24 00:32:54;;;;;;;;;;;;;;;14.00;55.49;99544.00;4917196;28;120161;-63
2022/04/24 00:35:19;;;;;;;;;;;;;;;13.98;55.29;99535.38;4917565;28;128236;-63
2022/04/24 00:37:45;;;;;;;;;;;;;;;13.97;55.20;99544.63;4919457;28;128318;-63
2022/04/24 00:40:12;;;;;;;;;;;;;;;13.95;55.41;99538.75;4919747;28;126298;-63
2022/04/24 00:42:37;;;;;;;;;;;;;;;13.93;55.27;99535.53;4934988;28;98097;-66
2022/04/24 00:45:04;;;;;;;;;;;;;;;13.93;55.48;99534.72;4920051;28;127595;-66
2022/04/24 00:47:30;;;;;;;;;;;;;;;13.92;55.18;99533.13;4919862;28;99392;-66
2022/04/24 00:49:55;;;;;;;;;;;;;;;13.91;55.58;99528.81;4918533;28;128198;-63
2022/04/24 00:52:21;;;;;;;;;;;;;;;13.89;55.37;99522.91;4917262;28;121402;-63
2022/04/24 00:54:47;;;;;;;;;;;;;;;13.88;55.52;99532.16;4920552;28;98872;-66
2022/04/24 00:57:14;;;;;;;;;;;;;;;13.86;55.20;99520.81;4921141;28;128059;-63
2022/04/24 00:59:39;;;;;;;;;;;;;;;13.86;55.70;99528.94;4920352;28;98585;-67
2022/04/24 01:02:06;;;;;;;;;;;;;;;13.84;55.45;99520.34;4918602;28;122784;-64
2022/04/24 01:04:34;;;;;;;;;;;;;;;13.83;55.59;99518.72;4920583;28;98962;-66
2022/04/24 01:07:00;;;;;;;;;;;;;;;13.81;55.46;99523.69;4917888;28;122980;-63
2022/04/24 01:09:26;;;;;;;;;;;;;;;13.80;55.53;99524.81;4917326;28;127878;-63
2022/04/24 01:11:55;;;;;;;;;;;;;;;13.77;55.91;99520.00;4918564;28;97838;-66
2022/04/24 01:14:25;;;;;;;;;;;;;;;13.75;55.91;99517.56;4918379;28;98772;-65
2022/04/24 01:16:50;;;;;;;;;;;;;;;13.73;56.02;99519.81;4920424;28;98917;-63
2022/04/24 01:19:19;;;;;;;;;;;;;;;13.71;55.71;99505.78;4934759;28;127623;-64
2022/04/24 01:21:46;;;;;;;;;;;;;;;13.70;55.67;99513.09;4939907;28;97778;-63
2022/04/24 01:24:12;;;;;;;;;;;;;;;13.69;55.76;99513.41;4939247;28;98389;-63
2022/04/24 01:26:38;;;;;;;;;;;;;;;13.66;55.85;99514.03;4919059;28;99088;-63
2022/04/24 01:29:04;;;;;;;;;;;;;;;13.64;55.91;99505.44;4908126;28;115237;-65
2022/04/24 01:31:31;;;;;;;;;;;;;;;13.63;55.82;99510.03;4920025;28;108875;-65
2022/04/24 01:33:57;;;;;;;;;;;;;;;13.61;55.96;99500.63;4919332;28;117853;-63
2022/04/24 01:36:23;;;;;;;;;;;;;;;13.59;55.78;99498.22;4920411;28;98526;-66
2022/04/24 01:38:48;;;;;;;;;;;;;;;13.57;55.90;99497.75;4918472;28;122276;-63
2022/04/24 01:41:14;;;;;;;;;;;;;;;13.57;56.09;99497.75;4919765;28;118434;-63
2022/04/24 01:43:41;;;;;;;;;;;;;;;13.56;55.74;99496.16;4918575;28;119455;-64
2022/04/24 01:46:08;;;;;;;;;;;;;;;13.55;55.85;99493.75;4919206;28;98976;-66
2022/04/24 01:48:34;;;;;;;;;;;;;;;13.53;56.29;99493.28;4919530;28;98378;-63
2022/04/24 01:51:04;;;;;;;;;;;;;;;13.50;56.04;99481.94;4917845;28;120872;-63
2022/04/24 01:53:29;;;;;;;;;;;;;;;13.48;56.02;99486.88;4916724;28;121208;-66
2022/04/24 01:55:59;;;;;;;;;;;;;;;13.48;56.24;99486.09;4925313;28;128255;-63
2022/04/24 01:58:26;;;;;;;;;;;;;;;13.45;56.22;99487.50;4918736;28;98942;-63
2022/04/24 02:00:52;;;;;;;;;;;;;;;13.44;56.14;99483.19;4918622;28;97970;-63
2022/04/24 02:03:18;;;;;;;;;;;;;;;13.43;56.20;99481.56;4918813;28;122814;-66
2022/04/24 02:05:44;;;;;;;;;;;;;;;13.41;56.34;99474.88;4920079;28;98499;-66
2022/04/24 02:08:10;;;;;;;;;;;;;;;13.39;56.29;99477.88;4919850;28;125414;-63
2022/04/24 02:10:36;;;;;;;;;;;;;;;13.38;56.14;99476.28;4923518;28;98058;-63
2022/04/24 02:13:02;;;;;;;;;;;;;;;13.36;56.36;99475.81;4919643;28;128395;-65
2022/04/24 02:15:28;;;;;;;;;;;;;;;13.35;56.41;99474.19;4922601;28;127397;-66
2022/04/24 02:17:55;;;;;;;;;;;;;;;13.33;56.46;99467.53;4920675;28;98131;-66
2022/04/24 02:20:21;;;;;;;;;;;;;;;13.31;56.41;99473.22;4911731;28;98455;-67
2022/04/24 02:22:47;;;;;;;;;;;;;;;13.30;56.36;99457.31;4901246;28;120861;-66
2022/04/24 02:25:13;;;;;;;;;;;;;;;13.27;56.35;99456.81;4918239;28;128395;-66
2022/04/24 02:27:39;;;;;;;;;;;;;;;13.27;56.43;99450.59;4926589;28;98388;-63
2022/04/24 02:30:05;;;;;;;;;;;;;;;13.25;56.31;99455.53;4920966;28;121874;-66
2022/04/24 02:32:31;;;;;;;;;;;;;;;13.23;56.38;99452.31;4921361;28;125322;-63
2022/04/24 02:34:57;;;;;;;;;;;;;;;13.23;56.22;99449.63;4922482;28;98829;-63
2022/04/24 02:37:25;;;;;;;;;;;;;;;13.20;56.58;99442.91;4921740;28;128130;-63
2022/04/24 02:39:51;;;;;;;;;;;;;;;13.20;56.57;99436.66;4923158;28;97762;-63
2022/04/24 02:42:17;;;;;;;;;;;;;;;13.17;56.56;99429.97;4921614;28;126735;-67
2022/04/24 02:44:43;;;;;;;;;;;;;;;13.16;56.60;99433.78;4922477;28;98777;-63
2022/04/24 02:47:09;;;;;;;;;;;;;;;13.15;56.56;99439.50;4919858;28;125886;-66
2022/04/24 02:49:35;;;;;;;;;;;;;;;13.14;56.56;99436.00;4918910;28;118557;-66
2022/04/24 02:52:01;;;;;;;;;;;;;;;13.12;56.52;99432.00;4921611;28;121422;-63
2022/04/24 02:54:27;;;;;;;;;;;;;;;13.12;56.60;99434.72;4921871;28;128245;-63
2022/04/24 02:56:53;;;;;;;;;;;;;;;13.10;56.68;99426.91;4936051;28;127672;-63
2022/04/24 02:59:19;;;;;;;;;;;;;;;13.09;56.75;99438.84;4921075;28;120833;-63
2022/04/24 03:01:45;;;;;;;;;;;;;;;13.08;56.56;99433.72;4922690;28;98936;-64
2022/04/24 03:04:12;;;;;;;;;;;;;;;13.06;56.67;99436.75;4921992;28;126620;-63
2022/04/24 03:06:38;;;;;;;;;;;;;;;13.04;56.66;99430.84;4922105;28;98315;-68
2022/04/24 03:09:05;;;;;;;;;;;;;;;13.03;56.79;99434.66;4921318;28;120287;-63
2022/04/24 03:11:31;;;;;;;;;;;;;;;13.02;56.76;99438.47;4921948;28;98445;-63
2022/04/24 03:13:57;;;;;;;;;;;;;;;13.01;56.60;99443.09;4922435;28;98594;-63
2022/04/24 03:16:23;;;;;;;;;;;;;;;12.99;56.97;99436.38;4921507;28;122762;-63
2022/04/24 03:18:48;;;;;;;;;;;;;;;12.98;56.87;99437.50;4921405;28;120606;-63
2022/04/24 03:21:14;;;;;;;;;;;;;;;12.95;56.93;99443.50;4937184;28;128000;-63
2022/04/24 03:23:40;;;;;;;;;;;;;;;12.95;56.90;99436.19;4939750;28;127438;-65
2022/04/24 03:26:06;;;;;;;;;;;;;;;12.93;56.72;99435.72;4940850;28;129206;-66
2022/04/24 03:28:32;;;;;;;;;;;;;;;12.92;57.00;99439.50;4925164;28;98335;-66
2022/04/24 03:30:58;;;;;;;;;;;;;;;12.90;56.72;99436.31;4920985;28;99219;-67
2022/04/24 03:33:24;;;;;;;;;;;;;;;12.89;57.20;99428.50;4920135;28;129252;-63
2022/04/24 03:35:50;;;;;;;;;;;;;;;12.87;56.81;99436.13;4921127;28;115195;-63
2022/04/24 03:38:16;;;;;;;;;;;;;;;12.87;56.97;99434.22;4921439;28;98137;-66
2022/04/24 03:40:42;;;;;;;;;;;;;;;12.86;57.04;99438.03;4920874;28;126076;-63
2022/04/24 03:43:08;;;;;;;;;;;;;;;12.85;56.89;99435.63;4921083;28;128328;-66
2022/04/24 03:45:34;;;;;;;;;;;;;;;12.83;56.77;99444.06;4920444;28;127572;-66
2022/04/24 03:48:00;;;;;;;;;;;;;;;12.83;56.79;99443.28;4920413;28;98697;-67
2022/04/24 03:50:26;;;;;;;;;;;;;;;12.81;57.03;99440.06;4921987;28;98921;-67
2022/04/24 03:52:52;;;;;;;;;;;;;;;12.81;57.06;99442.75;4920412;28;128357;-67
2022/04/24 03:55:18;;;;;;;;;;;;;;;12.78;57.09;99445.00;4921033;28;126271;-67
2022/04/24 03:57:44;;;;;;;;;;;;;;;12.78;56.86;99458.50;4928014;28;99607;-64
2022/04/24 04:00:10;;;;;;;;;;;;;;;12.77;56.93;99454.22;4920665;28;127181;-67
2022/04/24 04:02:45;;;;;;;;;;;;;;;12.77;57.05;99450.69;4921074;28;99277;-66
2022/04/24 04:05:11;;;;;;;;;;;;;;;12.75;56.97;99453.69;4921176;28;116898;-67
2022/04/24 04:07:37;;;;;;;;;;;;;;;12.77;56.87;99450.69;4919243;28;98096;-66
2022/04/24 04:10:04;;;;;;;;;;;;;;;12.75;57.03;99450.22;4920598;28;126407;-63
2022/04/24 04:12:29;;;;;;;;;;;;;;;12.75;57.07;99448.28;4920354;28;102595;-63
2022/04/24 04:14:55;;;;;;;;;;;;;;;12.76;56.95;99444.47;4918396;28;128288;-67
2022/04/24 04:17:21;;;;;;;;;;;;;;;12.76;57.07;99449.88;4918373;28;97835;-63
2022/04/24 04:19:47;;;;;;;;;;;;;;;12.80;57.07;99449.28;4924660;28;128319;-63
2022/04/24 04:22:13;;;;;;;;;;;;;;;12.79;56.93;99440.38;4939003;28;126280;-63
2022/04/24 04:24:39;;;;;;;;;;;;;;;12.81;56.95;99437.34;4939532;28;128484;-63
2022/04/24 04:27:05;;;;;;;;;;;;;;;12.82;56.89;99445.19;4935280;28;121602;-63
2022/04/24 04:29:31;;;;;;;;;;;;;;;12.84;56.90;99445.66;4920743;28;101171;-63
2022/04/24 04:31:57;;;;;;;;;;;;;;;12.86;56.96;99448.06;4935155;28;98266;-65
2022/04/24 04:34:23;;;;;;;;;;;;;;;12.88;56.79;99445.84;4934689;28;128292;-64
2022/04/24 04:36:48;;;;;;;;;;;;;;;12.90;56.92;99444.44;4919988;28;121876;-66
2022/04/24 04:39:14;;;;;;;;;;;;;;;12.92;56.73;99442.22;4920070;28;98405;-63
2022/04/24 04:41:40;;;;;;;;;;;;;;;12.94;56.81;99440.00;4918598;28;127429;-66
2022/04/24 04:44:06;;;;;;;;;;;;;;;12.96;56.86;99443.19;4920434;28;108725;-67
2022/04/24 04:46:32;;;;;;;;;;;;;;;12.98;57.01;99438.28;4920396;28;122524;-66
2022/04/24 04:48:58;;;;;;;;;;;;;;;13.02;56.91;99436.56;4917366;28;126901;-63
2022/04/24 04:51:24;;;;;;;;;;;;;;;13.05;56.75;99435.16;4919957;28;123794;-63
2022/04/24 04:53:51;;;;;;;;;;;;;;;13.08;56.85;99442.63;4919249;28;127907;-66
2022/04/24 04:56:17;;;;;;;;;;;;;;;13.11;56.95;99433.13;4929458;28;97773;-67
2022/04/24 04:58:43;;;;;;;;;;;;;;;13.14;56.86;99437.91;4917474;28;128272;-63
2022/04/24 05:01:09;;;;;;;;;;;;;;;13.17;56.69;99434.59;4919394;28;128166;-66
2022/04/24 05:03:35;;;;;;;;;;;;;;;13.21;56.79;99430.16;4918923;28;125531;-63
2022/04/24 05:06:01;;;;;;;;;;;;;;;13.25;56.80;99437.38;4921322;28;122904;-67
2022/04/24 05:08:27;;;;;;;;;;;;;;;13.31;56.72;99432.63;4918881;28;127518;-63
2022/04/24 05:10:53;;;;;;;;;;;;;;;13.35;56.56;99428.19;4922427;28;125051;-66
2022/04/24 05:13:20;;;;;;;;;;;;;;;13.44;56.33;99429.06;4921195;28;127924;-66
2022/04/24 05:15:46;;;;;;;;;;;;;;;13.51;56.35;99431.28;4923567;28;97761;-66
2022/04/24 05:18:12;;;;;;;;;;;;;;;13.58;56.26;99437.06;4920170;28;113447;-67
2022/04/24 05:20:38;;;;;;;;;;;;;;;13.66;56.28;99435.50;4933698;28;127305;-66
2022/04/24 05:23:05;;;;;;;;;;;;;;;13.74;56.41;99446.38;4941779;28;98437;-63
2022/04/24 05:25:31;;;;;;;;;;;;;;;13.81;56.16;99443.22;4943145;28;98042;-67
2022/04/24 05:27:57;;;;;;;;;;;;;;;13.89;56.28;99438.94;4929907;28;100837;-63
2022/04/24 05:30:23;;;;;;;;;;;;;;;13.94;56.30;99445.00;4920098;28;128049;-68
2022/04/24 05:32:51;;;;;;;;;;;;;;;14.03;56.09;99446.94;4929894;28;126775;-64
2022/04/24 05:35:17;;;;;;;;;;;;;;;14.14;55.76;99446.34;4913905;28;98431;-64
2022/04/24 05:37:45;;;;;;;;;;;;;;;14.27;55.77;99441.13;4914965;28;126843;-69
2022/04/24 05:40:11;;;;;;;;;;;;;;;14.43;55.54;99437.63;4916490;28;98394;-65
2022/04/24 05:42:49;;;;;;;;;;;;;;;14.57;55.22;99432.06;4918270;28;98069;-62
2022/04/24 05:45:18;;;;;;;;;;;;;;;14.77;55.10;99433.34;4919440;28;98701;-65
2022/04/24 05:47:44;;;;;;;;;;;;;;;14.95;55.06;99428.72;4919316;28;98570;-62
2022/04/24 05:50:10;;;;;;;;;;;;;;;15.07;54.62;99422.66;4919198;28;98924;-68
2022/04/24 05:52:36;;;;;;;;;;;;;;;15.17;54.76;99431.25;4918017;28;127593;-64
2022/04/24 05:55:02;;;;;;;;;;;;;;;15.34;54.12;99424.19;4918961;28;122641;-64
2022/04/24 05:57:28;;;;;;;;;;;;;;;15.48;54.45;99419.31;4925746;28;118572;-66
2022/04/24 05:59:54;;;;;;;;;;;;;;;15.66;54.09;99422.81;4918498;28;128498;-62
2022/04/24 06:02:20;;;;;;;;;;;;;;;15.83;53.80;99421.94;4918032;28;128561;-66
2022/04/24 06:04:46;;;;;;;;;;;;;;;16.05;53.28;99418.16;4918939;28;122799;-65
2022/04/24 06:07:11;;;;;;;;;;;;;;;16.29;53.39;99417.53;4919154;28;98253;-62
2022/04/24 06:09:38;;;;;;;;;;;;;;;16.41;53.01;99410.22;4917792;28;128757;-62
2022/04/24 06:12:04;;;;;;;;;;;;;;;16.57;52.88;99415.88;4917508;28;126461;-62
2022/04/24 06:14:30;;;;;;;;;;;;;;;16.80;52.45;99410.13;4916157;28;115290;-66
2022/04/24 06:16:56;;;;;;;;;;;;;;;16.92;52.34;99408.22;4932725;28;127438;-66
2022/04/24 06:19:22;;;;;;;;;;;;;;;17.07;52.40;99400.56;4920309;28;98991;-62
2022/04/24 06:21:48;;;;;;;;;;;;;;;17.19;52.16;99392.44;4922224;28;127192;-62
2022/04/24 06:24:14;;;;;;;;;;;;;;;17.46;51.63;99401.13;4917301;28;122098;-62
2022/04/24 06:26:41;;;;;;;;;;;;;;;17.62;51.59;99404.75;4918068;28;120256;-66
2022/04/24 06:29:07;;;;;;;;;;;;;;;17.71;51.46;99399.19;4918483;28;99117;-62
2022/04/24 06:31:33;;;;;;;;;;;;;;;17.94;51.34;99392.19;4918388;28;128124;-62
2022/04/24 06:33:59;;;;;;;;;;;;;;;18.26;50.79;99395.09;4917314;28;121104;-62
2022/04/24 06:36:24;;;;;;;;;;;;;;;18.47;50.64;99384.00;4917759;28;126052;-65
2022/04/24 06:38:50;;;;;;;;;;;;;;;18.70;50.30;99387.00;4915353;28;130085;-66
2022/04/24 06:41:16;;;;;;;;;;;;;;;19.07;49.73;99379.47;4918048;28;127854;-62
2022/04/24 06:43:42;;;;;;;;;;;;;;;19.67;48.75;99374.75;4900104;28;123787;-62
2022/04/24 06:46:08;;;;;;;;;;;;;;;20.38;48.03;99366.56;4917561;28;128376;-68
2022/04/24 06:48:34;;;;;;;;;;;;;;;21.03;47.12;99364.75;4918134;28;127640;-62
2022/04/24 06:51:00;;;;;;;;;;;;;;;21.51;46.93;99358.94;4916872;28;123251;-67
2022/04/24 06:53:28;;;;;;;;;;;;;;;21.89;46.65;99362.63;4914810;28;122622;-67
2022/04/24 06:55:54;;;;;;;;;;;;;;;22.26;46.60;99360.84;4922710;28;98211;-66
2022/04/24 06:58:20;;;;;;;;;;;;;;;22.74;46.43;99352.00;4918139;28;98796;-66
2022/04/24 07:00:47;;;;;;;;;;;;;;;23.21;46.11;99350.53;4918107;28;98066;-62
2022/04/24 07:03:14;;;;;;;;;;;;;;;23.55;45.91;99339.44;4918738;28;97908;-63
2022/04/24 07:05:40;;;;;;;;;;;;;;;23.82;45.91;99343.59;4917519;28;99050;-65
2022/04/24 07:08:06;;;;;;;;;;;;;;;24.09;45.68;99335.91;4932553;28;98301;-66
2022/04/24 07:10:32;;;;;;;;;;;;;;;24.35;45.84;99339.53;4917457;28;127692;-67
2022/04/24 07:12:58;;;;;;;;;;;;;;;24.60;45.96;99340.47;4916539;28;120026;-63
2022/04/24 07:15:24;;;;;;;;;;;;;;;24.82;46.08;99338.56;4916424;28;126189;-63
2022/04/24 07:17:51;;;;;;;;;;;;;;;25.05;45.85;99342.94;4916638;28;99495;-62
2022/04/24 07:20:18;;;;;;;;;;;;;;;25.30;46.08;99338.25;4916166;28;98161;-66
2022/04/24 07:22:51;;;;;;;;;;;;;;;25.57;45.97;99337.84;4914247;28;120215;-62
2022/04/24 07:25:18;;;;;;;;;;;;;;;25.85;45.98;99340.59;4917868;28;98709;-62
2022/04/24 07:27:44;;;;;;;;;;;;;;;26.13;45.66;99345.28;4917406;28;98672;-62
2022/04/24 07:30:16;;;;;;;;;;;;;;;26.42;45.36;99345.16;4918138;28;97841;-66
2022/04/24 07:32:49;;;;;;;;;;;;;;;26.79;45.23;99336.31;4918594;28;98178;-62
2022/04/24 07:35:20;;;;;;;;;;;;;;;27.21;44.92;99339.25;4918110;28;98551;-67
2022/04/24 07:37:46;;;;;;;;;;;;;;;27.60;44.65;99334.16;4916649;28;128932;-66
2022/04/24 07:40:14;;;;;;;;;;;;;;;27.94;44.48;99335.44;4918137;28;109814;-67
2022/04/24 07:42:48;;;;;;;;;;;;;;;28.24;44.41;99329.94;4917487;28;111551;-62
2022/04/24 07:45:18;;;;;;;;;;;;;;;28.57;44.25;99335.88;4918104;28;98406;-62
2022/04/24 07:47:45;;;;;;;;;;;;;;;28.85;44.01;99335.53;4917761;28;99088;-66
2022/04/24 07:50:12;;;;;;;;;;;;;;;29.08;43.65;99332.03;4918042;28;97949;-66
2022/04/24 07:52:38;;;;;;;;;;;;;;;29.16;43.32;99320.81;4916870;28;97862;-66
2022/04/24 07:55:04;;;;;;;;;;;;;;;29.30;43.31;99326.91;4916443;28;128206;-67
2022/04/24 07:57:30;;;;;;;;;;;;;;;29.58;42.74;99324.91;4918525;28;121308;-62
2022/04/24 07:59:57;;;;;;;;;;;;;;;30.00;42.32;99319.78;4916145;28;127704;-67
2022/04/24 08:02:23;;;;;;;;;;;;;;;30.67;41.62;99319.59;4916908;28;121519;-66
2022/04/24 08:04:49;;;;;;;;;;;;;;;31.54;40.29;99333.88;4915137;28;127858;-67
2022/04/24 08:07:15;;;;;;;;;;;;;;;32.18;39.47;99325.78;4914782;28;100933;-65
2022/04/24 08:09:44;;;;;;;;;;;;;;;32.81;38.87;99322.34;4917021;28;98572;-63
2022/04/24 08:12:10;;;;;;;;;;;;;;;33.56;38.45;99316.38;4917062;28;97804;-67
2022/04/24 08:14:36;;;;;;;;;;;;;;;34.35;37.69;99312.38;4915751;28;128860;-64
2022/04/24 08:17:02;;;;;;;;;;;;;;;35.32;36.79;99311.38;4916396;28;127614;-68
2022/04/24 08:19:27;;;;;;;;;;;;;;;36.39;35.67;99306.69;4916402;28;127466;-63
2022/04/24 08:21:53;;;;;;;;;;;;;;;37.40;34.75;99302.66;4915877;28;123451;-67
2022/04/24 08:24:19;;;;;;;;;;;;;;;38.38;33.14;99311.22;4915253;28;126358;-67
2022/04/24 08:26:45;;;;;;;;;;;;;;;39.32;32.57;99307.56;4932064;28;98188;-66
2022/04/24 08:29:11;;;;;;;;;;;;;;;39.94;32.27;99304.22;4915630;28;127418;-63
2022/04/24 08:31:37;;;;;;;;;;;;;;;40.80;31.33;99303.69;4917038;28;122640;-66
2022/04/24 08:34:03;;;;;;;;;;;;;;;40.22;31.87;99307.31;4914579;28;127002;-63
2022/04/24 08:36:29;;;;;;;;;;;;;;;37.90;34.17;99289.66;4916088;28;127543;-62
2022/04/24 08:38:55;;;;;;;;;;;;;;;36.77;34.87;99302.53;4915132;28;127393;-67
2022/04/24 08:41:21;;;;;;;;;;;;;;;35.61;35.53;99297.75;4916728;28;97700;-62
2022/04/24 08:43:47;;;;;;;;;;;;;;;34.82;35.30;99289.00;4916253;28;98052;-67
2022/04/24 08:46:13;;;;;;;;;;;;;;;34.09;35.40;99285.78;4924814;28;102744;-66
2022/04/24 08:48:41;;;;;;;;;;;;;;;33.48;35.86;99296.28;4925325;28;121229;-66
2022/04/24 08:51:08;;;;;;;;;;;;;;;32.91;35.56;99284.97;4914720;28;115146;-63
2022/04/24 08:53:34;;;;;;;;;;;;;;;33.02;35.25;99281.88;4915890;28;106373;-68
2022/04/24 08:56:01;;;;;;;;;;;;;;;32.66;35.50;99282.19;4922400;28;126697;-63
2022/04/24 08:58:27;;;;;;;;;;;;;;;32.01;35.94;99294.44;4916273;28;115610;-64
2022/04/24 09:00:53;;;;;;;;;;;;;;;31.92;35.65;99278.38;4917260;28;97936;-63
2022/04/24 09:03:19;;;;;;;;;;;;;;;31.75;35.80;99266.47;4915191;28;126216;-66
2022/04/24 09:05:44;;;;;;;;;;;;;;;31.55;35.82;99271.38;4914910;28;127893;-63
2022/04/24 09:08:11;;;;;;;;;;;;;;;31.35;36.02;99281.88;4915259;28;126358;-66
2022/04/24 09:10:54;;;;;;;;;;;;;;;31.18;35.98;99292.22;4917570;28;97919;-63
2022/04/24 09:16:18;;;;;;;;;;;;;;;31.83;35.19;99277.41;4912662;28;98179;-67
2022/04/24 09:18:46;;;;;;;;;;;;;;;31.53;35.61;99276.63;4913037;28;127537;-66
2022/04/24 09:21:13;;;;;;;;;;;;;;;31.49;35.73;99262.03;4921197;28;97931;-63
2022/04/24 09:23:39;;;;;;;;;;;;;;;31.42;35.91;99270.56;4916257;28;98883;-65
2022/04/24 09:26:05;;;;;;;;;;;;;;;31.72;35.58;99272.94;4917082;28;98792;-62
2022/04/24 09:28:38;;;;;;;;;;;;;;;32.21;35.17;99272.75;4916388;28;98152;-68
2022/04/24 09:31:04;;;;;;;;;;;;;;;31.62;35.87;99268.41;4916662;28;97973;-66
2022/04/24 09:33:40;;;;;;;;;;;;;;;31.25;36.49;99272.56;4916219;28;98544;-63
2022/04/24 09:36:07;;;;;;;;;;;;;;;30.93;36.72;99271.34;4916585;28;98433;-66
2022/04/24 09:38:42;;;;;;;;;;;;;;;30.70;36.88;99268.69;4914621;28;127880;-66
2022/04/24 09:41:19;;;;;;;;;;;;;;;30.38;37.40;99272.19;4916564;28;97819;-63
2022/04/24 09:43:45;;;;;;;;;;;;;;;30.05;37.28;99275.59;4915505;28;98739;-62
2022/04/24 09:46:11;;;;;;;;;;;;;;;29.66;37.64;99272.81;4916808;28;98866;-67
2022/04/24 09:48:37;;;;;;;;;;;;;;;29.31;38.15;99273.00;4912734;28;126106;-62
2022/04/24 09:51:03;;;;;;;;;;;;;;;29.00;38.29;99268.75;4915187;28;120850;-62
2022/04/24 09:53:29;;;;;;;;;;;;;;;28.72;38.25;99281.06;4915656;28;98351;-66
2022/04/24 09:55:55;;;;;;;;;;;;;;;28.37;38.45;99270.06;4918007;28;114742;-67
2022/04/24 09:58:21;;;;;;;;;;;;;;;28.14;38.80;99272.72;4914351;28;128214;-66
2022/04/24 10:00:47;;;;;;;;;;;;;;;27.92;38.78;99268.63;4914836;28;98104;-65
2022/04/24 10:03:14;;;;;;;;;;;;;;;27.68;38.57;99273.22;4929973;28;107759;-66
2022/04/24 10:05:43;;;;;;;;;;;;;;;27.54;38.73;99260.31;4914603;28;99238;-62
2022/04/24 10:08:09;;;;;;;;;;;;;;;27.32;38.77;99265.28;4916150;28;98015;-62
2022/04/24 10:10:35;;;;;;;;;;;;;;;27.01;39.07;99265.09;4915823;28;98517;-65
2022/04/24 10:13:01;;;;;;;;;;;;;;;26.75;39.20;99257.38;4914299;28;124609;-65
2022/04/24 10:15:28;;;;;;;;;;;;;;;26.55;39.49;99259.88;4930599;28;98637;-66
2022/04/24 10:18:02;;;;;;;;;;;;;;;26.42;39.30;99262.31;4929152;28;123973;-66
2022/04/24 10:21:06;;;;;;;;;;;;;;;26.22;39.46;99261.22;4916962;28;97791;-62
2022/04/24 10:23:36;;;;;;;;;;;;;;;26.06;39.29;99256.97;4915449;28;98294;-62
2022/04/24 10:26:03;;;;;;;;;;;;;;;26.06;39.16;99254.19;4914816;28;98601;-63
2022/04/24 10:28:37;;;;;;;;;;;;;;;26.18;38.68;99253.75;4915538;28;98499;-66
2022/04/24 10:31:03;;;;;;;;;;;;;;;26.34;38.48;99250.50;4918419;28;123123;-62
2022/04/24 10:33:36;;;;;;;;;;;;;;;26.47;38.52;99250.84;4918821;28;98295;-63
2022/04/24 10:36:12;;;;;;;;;;;;;;;26.80;38.22;99245.91;4919003;28;101986;-65
2022/04/24 10:38:52;;;;;;;;;;;;;;;27.14;37.76;99243.28;4918501;28;98156;-62
2022/04/24 10:41:25;;;;;;;;;;;;;;;27.79;37.01;99235.16;4919150;28;98315;-66
2022/04/24 10:43:57;;;;;;;;;;;;;;;28.90;36.06;99233.66;4918498;28;98496;-62
2022/04/24 10:46:30;;;;;;;;;;;;;;;28.88;36.33;99242.38;4918803;28;99282;-66
2022/04/24 10:49:12;;;;;;;;;;;;;;;28.81;36.94;99226.66;4915820;28;98451;-66
2022/04/24 10:51:40;;;;;;;;;;;;;;;28.59;37.51;99223.44;4919433;28;98079;-62
2022/04/24 10:54:14;;;;;;;;;;;;;;;28.51;37.80;99224.75;4917785;28;99045;-62
2022/04/24 10:56:49;;;;;;;;;;;;;;;28.73;37.62;99230.75;4918316;28;99519;-66
2022/04/24 10:59:22;;;;;;;;;;;;;;;28.60;37.95;99225.00;4916627;28;98007;-62
2022/04/24 11:01:58;;;;;;;;;;;;;;;28.56;38.08;99229.03;4918434;28;97787;-66
2022/04/24 11:04:25;;;;;;;;;;;;;;;28.26;38.15;99227.84;4918195;28;98394;-67
2022/04/24 11:06:58;;;;;;;;;;;;;;;27.83;38.79;99222.84;4918933;28;98154;-62
2022/04/24 11:09:31;;;;;;;;;;;;;;;27.64;38.86;99220.66;4899504;28;111732;-66
2022/04/24 11:12:03;;;;;;;;;;;;;;;27.34;39.11;99226.91;4933020;28;98107;-67
2022/04/24 11:14:29;;;;;;;;;;;;;;;27.00;39.48;99222.06;4916484;28;98306;-62
2022/04/24 11:16:57;;;;;;;;;;;;;;;26.62;39.76;99221.16;4932100;28;98552;-62
2022/04/24 11:19:30;;;;;;;;;;;;;;;26.30;39.97;99233.19;4918866;28;98234;-65
2022/04/24 11:22:00;;;;;;;;;;;;;;;25.99;40.24;99226.63;4922914;28;97764;-63
2022/04/24 11:24:27;;;;;;;;;;;;;;;25.64;40.34;99219.22;4918384;28;98975;-65
2022/04/24 11:26:54;;;;;;;;;;;;;;;25.30;40.49;99216.91;4932427;28;99087;-67
2022/04/24 11:29:20;;;;;;;;;;;;;;;25.03;40.29;99215.75;4917104;28;128804;-67
2022/04/24 11:31:51;;;;;;;;;;;;;;;24.80;40.78;99216.94;4918073;28;97969;-63
2022/04/24 11:34:18;;;;;;;;;;;;;;;24.58;40.93;99218.88;4917700;28;98364;-63
2022/04/24 11:36:44;;;;;;;;;;;;;;;24.38;41.08;99221.19;4917562;28;98196;-63
2022/04/24 11:39:10;;;;;;;;;;;;;;;24.20;41.02;99217.56;4916860;28;98403;-67
2022/04/24 11:41:36;;;;;;;;;;;;;;;23.97;41.43;99220.63;4917342;28;121899;-67
2022/04/24 11:50:13;;;;;;;;;;;;;;;23.75;41.69;99219.78;4916411;28;127130;-63
2022/04/24 11:52:32;;;;;;;;;;;;;;;23.15;42.20;99233.91;4915099;28;97845;-67
2022/04/24 11:54:58;;;;;;;;;;;;;;;22.98;42.12;99227.88;4916379;28;127386;-63
2022/04/24 11:57:23;;;;;;;;;;;;;;;22.85;42.39;99226.56;4917329;28;128850;-67
2022/04/24 11:59:54;;;;;;;;;;;;;;;22.74;42.44;99220.97;4914980;28;127685;-67
2022/04/24 12:02:26;;;;;;;;;;;;;;;22.64;42.60;99229.13;4914690;28;98154;-66
2022/04/24 12:04:52;;;;;;;;;;;;;;;22.56;42.68;99233.75;4917454;28;98483;-63
2022/04/24 12:07:18;;;;;;;;;;;;;;;22.52;42.73;99233.72;4916651;28;110189;-64
2022/04/24 12:09:44;;;;;;;;;;;;;;;22.53;42.66;99229.81;4917048;28;98072;-66
2022/04/24 12:12:11;;;;;;;;;;;;;;;22.52;42.85;99230.19;4915604;28;122055;-67
2022/04/24 12:14:38;;;;;;;;;;;;;;;22.49;42.69;99233.69;4917461;28;98618;-68
2022/04/24 12:17:05;;;;;;;;;;;;;;;22.46;43.10;99234.44;4916577;28;98832;-66
2022/04/24 12:19:32;;;;;;;;;;;;;;;22.42;43.20;99230.84;4933614;28;99214;-67
2022/04/24 12:22:07;;;;;;;;;;;;;;;22.37;43.06;99232.00;4918552;28;98169;-63
2022/04/24 12:24:41;;;;;;;;;;;;;;;22.32;43.29;99237.00;4917354;28;113937;-66
2022/04/24 12:27:09;;;;;;;;;;;;;;;22.27;43.26;99229.91;4931394;28;98629;-63
2022/04/24 12:29:42;;;;;;;;;;;;;;;22.24;43.34;99225.16;4917140;28;98274;-63
2022/04/24 12:32:12;;;;;;;;;;;;;;;22.22;43.49;99224.75;4931530;28;98037;-67
2022/04/24 12:34:44;;;;;;;;;;;;;;;22.18;43.59;99219.22;4915884;28;98605;-63
2022/04/24 12:37:11;;;;;;;;;;;;;;;22.14;43.70;99223.88;4916875;28;98401;-67
2022/04/24 12:39:37;;;;;;;;;;;;;;;22.08;43.85;99222.59;4916006;28;123677;-63
2022/04/24 12:42:17;;;;;;;;;;;;;;;22.02;43.98;99224.91;4916592;28;98069;-66
2022/04/24 12:44:43;;;;;;;;;;;;;;;21.97;44.03;99227.19;4915983;28;98456;-63
2022/04/24 12:47:09;;;;;;;;;;;;;;;21.90;44.12;99221.63;4914486;28;99138;-66
2022/04/24 12:49:35;;;;;;;;;;;;;;;21.84;44.17;99221.13;4914551;28;126753;-63